KTCC/TCC METAR and TAF weather

Enter ICAO airport designator
Station Type Date Time Source
KTCC METAR 2019/02/22 23:53 UTC NOAA

KTCC 222353Z AUTO 16020G24KT 10SM BKN110 16/M04 A2965 RMK AO2 PK WND 16026/2302 SLP022 T01611039 10178 20106 58015


Station Type Date Time Source
KTCC Decoded METAR 2019/02/22 23:53 UTC NOAA

TUCUMCARI MUNICIPAL AIRPORT , NM, United States (KTCC) 35-11N 103-36W 1235M
Feb 22, 2019 - 06:53 PM EST / 2019.02.22 2353 UTC
Wind: from the SSE (160 degrees) at 23 MPH (20 KT) gusting to 28 MPH (24 KT):0
Visibility: 10 mile(s):0
Sky conditions: mostly cloudy
Temperature: 61.0 F (16.1 C)
Dew Point: 25.0 F (-3.9 C)
Relative Humidity: 25%
Pressure (altimeter): 29.65 in. Hg (1004 hPa)
Pressure tendency: 0.04 inches (1.5 hPa) lower than three hours ago
ob: KTCC 222353Z AUTO 16020G24KT 10SM BKN110 16/M04 A2965 RMK AO2 PK WND 16026/2302 SLP022 T01611039 10178 20106 58015
cycle: 0

Station Type Date Time Source
KTCC TAF 2019/02/22 18:40 UTC NOAA

TAF KTCC 221738Z 2218/2318 14010KT P6SM SKC
FM221930 17017G27KT P6SM SCT070
FM230400 20022G30KT 6SM -SHRASN OVC040
FM230800 24030G40KT P6SM SCT030 BKN040


Example: see airport list